createdAt,value
2023-04-16T00:04:32.396Z,100180.63
2023-04-16T00:09:34.683Z,100192.00
2023-04-16T00:14:36.827Z,100192.59
2023-04-16T00:19:38.971Z,100192.19
2023-04-16T00:24:41.600Z,100193.78
2023-04-16T00:29:43.703Z,100198.12
2023-04-16T00:34:46.046Z,100201.34
2023-04-16T00:39:48.225Z,100198.12
2023-04-16T00:44:50.392Z,100204.62
2023-04-16T00:49:52.772Z,100196.91
2023-04-16T00:54:54.978Z,100203.41
2023-04-16T00:59:58.240Z,100202.59
2023-04-16T01:05:01.461Z,100194.62
2023-04-16T01:10:04.205Z,100198.53
2023-04-16T01:15:07.096Z,100199.91
2023-04-16T01:20:09.609Z,100207.84
2023-04-16T01:25:15.807Z,100216.69
2023-04-16T01:30:18.101Z,100220.72
2023-04-16T01:35:20.266Z,100213.94
2023-04-16T01:40:22.683Z,100202.69
2023-04-16T01:45:25.546Z,100219.47
2023-04-16T01:50:28.469Z,100217.56
2023-04-16T01:55:32.374Z,100223.41
2023-04-16T02:00:34.616Z,100220.88
2023-04-16T02:05:36.792Z,100216.13
2023-04-16T02:10:39.102Z,100209.41
2023-04-16T02:15:49.215Z,100225.78
2023-04-16T02:20:51.350Z,100211.09
2023-04-16T02:25:53.617Z,100229.75
2023-04-16T02:30:55.938Z,100223.50
2023-04-16T02:36:00.494Z,100236.31
2023-04-16T02:41:02.955Z,100224.13
2023-04-16T02:46:05.406Z,100236.59
2023-04-16T02:51:07.789Z,100232.44
2023-04-16T02:56:09.965Z,100238.78
2023-04-16T03:01:12.179Z,100223.75
2023-04-16T03:06:14.420Z,100225.00
2023-04-16T03:11:16.877Z,100230.75
2023-04-16T03:16:19.250Z,100232.69
2023-04-16T03:21:21.497Z,100235.44
2023-04-16T03:26:23.735Z,100246.16
2023-04-16T03:31:26.138Z,100246.50
2023-04-16T03:36:28.273Z,100248.62
2023-04-16T03:41:31.070Z,100261.59
2023-04-16T03:46:33.280Z,100286.34
2023-04-16T03:51:35.558Z,100285.50
2023-04-16T03:56:37.726Z,100301.28
2023-04-16T04:01:39.909Z,100302.44
2023-04-16T04:06:42.222Z,100306.25
2023-04-16T04:11:44.582Z,100309.38
2023-04-16T04:16:46.973Z,100302.44
2023-04-16T04:21:49.190Z,100304.25
2023-04-16T04:26:51.370Z,100299.53
2023-04-16T04:31:55.266Z,100304.97
2023-04-16T04:36:57.658Z,100308.28
2023-04-16T04:41:59.891Z,100328.37
2023-04-16T04:47:03.168Z,100331.28
2023-04-16T04:52:06.179Z,100318.87
2023-04-16T04:57:08.822Z,100328.37
2023-04-16T05:02:12.275Z,100332.22
2023-04-16T05:07:14.496Z,100337.03
2023-04-16T05:12:16.692Z,100336.06
2023-04-16T05:17:19.347Z,100345.78
2023-04-16T05:22:21.662Z,100339.78
2023-04-16T05:27:23.873Z,100338.28
2023-04-16T05:32:26.464Z,100332.94
2023-04-16T05:37:28.744Z,100339.09
2023-04-16T05:42:31.143Z,100354.00
2023-04-16T05:47:33.326Z,100366.47
2023-04-16T05:52:35.622Z,100364.16
2023-04-16T05:57:37.786Z,100369.19
2023-04-16T06:02:40.435Z,100372.31
2023-04-16T06:07:42.708Z,100379.84
2023-04-16T06:12:47.358Z,100383.53
2023-04-16T06:17:50.075Z,100373.50
2023-04-16T06:22:52.323Z,100373.03
2023-04-16T06:27:54.865Z,100381.00
2023-04-16T06:32:57.040Z,100373.06
2023-04-16T06:37:59.220Z,100367.59
2023-04-16T06:43:06.732Z,100371.44
2023-04-16T06:48:09.011Z,100367.78
2023-04-16T06:53:11.188Z,100370.97
2023-04-16T06:58:13.371Z,100377.31
2023-04-16T07:03:15.906Z,100364.53
2023-04-16T07:08:18.249Z,100370.09
2023-04-16T07:13:20.894Z,100368.75
2023-04-16T07:18:23.121Z,100378.78
2023-04-16T07:23:28.078Z,100379.41
2023-04-16T07:28:30.457Z,100375.03
2023-04-16T07:33:33.029Z,100371.00
2023-04-16T07:38:37.441Z,100366.41
2023-04-16T07:43:39.711Z,100376.50
2023-04-16T07:48:42.713Z,100374.41
2023-04-16T07:53:47.971Z,100364.81
2023-04-16T07:58:50.166Z,100364.09
2023-04-16T08:03:52.458Z,100373.53
2023-04-16T08:08:54.740Z,100377.00
2023-04-16T08:13:57.075Z,100376.34
2023-04-16T08:19:21.668Z,100373.72
2023-04-16T08:24:23.858Z,100371.34
2023-04-16T08:29:26.485Z,100359.81
2023-04-16T08:34:29.011Z,100356.63
2023-04-16T08:39:33.797Z,100362.87
2023-04-16T08:44:44.293Z,100363.75
2023-04-16T08:49:59.814Z,100364.12
2023-04-16T08:55:12.619Z,100370.94
2023-04-16T09:00:16.687Z,100378.75
2023-04-16T09:05:20.810Z,100382.28
2023-04-16T09:10:24.786Z,100381.38
2023-04-16T09:15:26.950Z,100384.06
2023-04-16T09:20:29.206Z,100385.94
2023-04-16T09:25:35.089Z,100397.53
2023-04-16T09:30:37.668Z,100395.66
2023-04-16T09:35:46.693Z,100400.41
2023-04-16T09:41:07.237Z,100412.84
2023-04-16T09:46:12.886Z,100408.38
2023-04-16T09:51:15.101Z,100410.75
2023-04-16T09:56:17.352Z,100418.31
2023-04-16T10:01:19.862Z,100415.03
2023-04-16T10:06:25.712Z,100414.69
2023-04-16T10:11:28.371Z,100406.03
2023-04-16T10:16:31.212Z,100391.16
2023-04-16T10:21:34.462Z,100388.44
2023-04-16T10:26:37.214Z,100389.69
2023-04-16T10:31:40.838Z,100386.56
2023-04-16T10:36:43.462Z,100371.84
2023-04-16T10:41:46.149Z,100368.75
2023-04-16T10:46:51.507Z,100367.84
2023-04-16T10:52:01.693Z,100359.94
2023-04-16T10:57:06.393Z,100355.34
2023-04-16T11:02:13.810Z,100356.22
2023-04-16T11:07:19.058Z,100338.31
2023-04-16T11:12:24.089Z,100331.50
2023-04-16T11:17:30.896Z,100324.91
2023-04-16T11:22:36.661Z,100328.59
2023-04-16T11:27:39.037Z,100332.59
2023-04-16T11:32:41.513Z,100320.91
2023-04-16T11:37:44.555Z,100322.47
2023-04-16T11:42:46.743Z,100322.09
2023-04-16T11:47:55.464Z,100315.41
2023-04-16T11:53:04.432Z,100308.22
2023-04-16T11:58:16.495Z,100319.63
2023-04-16T12:03:19.638Z,100310.88
2023-04-16T12:08:31.796Z,100299.47
2023-04-16T12:13:40.015Z,100303.31
2023-04-16T12:19:03.892Z,100294.19
2023-04-16T12:24:07.522Z,100292.66
2023-04-16T12:29:19.698Z,100295.75
2023-04-16T12:34:22.495Z,100288.19
2023-04-16T12:39:45.511Z,100285.78
2023-04-16T12:44:49.112Z,100280.87
2023-04-16T12:49:51.257Z,100275.66
2023-04-16T12:54:53.536Z,100273.56
2023-04-16T12:59:58.139Z,100267.81
2023-04-16T13:05:00.307Z,100269.12
2023-04-16T13:10:02.875Z,100264.37
2023-04-16T13:15:05.445Z,100263.25
2023-04-16T13:20:08.002Z,100251.84
2023-04-16T13:25:10.265Z,100249.03
2023-04-16T13:30:12.838Z,100249.03
2023-04-16T13:35:15.133Z,100246.63
2023-04-16T13:40:17.287Z,100240.50
2023-04-16T13:45:20.706Z,100237.66
2023-04-16T13:50:23.381Z,100237.37
2023-04-16T13:55:26.015Z,100234.25
2023-04-16T14:00:28.277Z,100241.09
2023-04-16T14:05:30.562Z,100228.59
2023-04-16T14:10:33.221Z,100219.87
2023-04-16T14:15:35.420Z,100237.19
2023-04-16T14:20:39.915Z,100228.47
2023-04-16T14:25:42.169Z,100236.06
2023-04-16T14:30:44.384Z,100227.84
2023-04-16T14:35:46.664Z,100220.97
2023-04-16T14:40:49.127Z,100219.50
2023-04-16T14:45:51.323Z,100206.75
2023-04-16T14:50:53.813Z,100212.00
2023-04-16T14:55:59.036Z,100212.19
2023-04-16T15:01:01.354Z,100210.28
2023-04-16T15:06:03.679Z,100209.59
2023-04-16T15:11:06.061Z,100203.97
2023-04-16T15:16:08.218Z,100196.75
2023-04-16T15:21:12.723Z,100200.53
2023-04-16T15:26:15.340Z,100208.69
2023-04-16T15:31:17.847Z,100208.41
2023-04-16T15:36:20.888Z,100207.16
2023-04-16T15:41:23.277Z,100201.72
2023-04-16T15:46:25.820Z,100195.09
2023-04-16T15:51:29.471Z,100199.81
2023-04-16T15:56:31.979Z,100201.62
2023-04-16T16:01:34.292Z,100202.31
2023-04-16T16:06:38.704Z,100199.97
2023-04-16T16:11:41.719Z,100195.81
2023-04-16T16:16:46.431Z,100209.69
2023-04-16T16:21:48.619Z,100206.44
2023-04-16T16:26:50.971Z,100211.16
2023-04-16T16:31:53.220Z,100215.34
2023-04-16T16:36:55.525Z,100217.13
2023-04-16T16:41:58.220Z,100216.00
2023-04-16T16:47:00.527Z,100208.22
2023-04-16T16:52:02.895Z,100217.38
2023-04-16T16:57:05.150Z,100209.50
2023-04-16T17:02:07.585Z,100219.75
2023-04-16T17:07:09.937Z,100219.06
2023-04-16T17:12:12.105Z,100218.69
2023-04-16T17:17:14.270Z,100217.50
2023-04-16T17:22:16.430Z,100216.59
2023-04-16T17:27:18.635Z,100242.44
2023-04-16T17:32:21.133Z,100232.97
2023-04-16T17:37:23.628Z,100237.75
2023-04-16T17:42:25.889Z,100240.69
2023-04-16T17:47:28.224Z,100246.78
2023-04-16T17:52:30.639Z,100247.22
2023-04-16T17:57:32.825Z,100250.66
2023-04-16T18:02:35.427Z,100258.69
2023-04-16T18:07:39.063Z,100270.59
2023-04-16T18:12:41.287Z,100273.69
2023-04-16T18:17:43.533Z,100281.53
2023-04-16T18:22:46.233Z,100287.78
2023-04-16T18:27:49.675Z,100289.84
2023-04-16T18:33:16.425Z,100288.00
2023-04-16T18:38:13.959Z,100296.06
2023-04-16T18:43:16.244Z,100260.59
2023-04-16T18:48:18.428Z,100276.28
2023-04-16T18:53:21.340Z,100262.62
2023-04-16T18:58:24.068Z,100257.41
2023-04-16T19:03:28.490Z,100272.25
2023-04-16T19:08:30.856Z,100264.59
2023-04-16T19:13:33.205Z,100259.69
2023-04-16T19:18:35.585Z,100250.25
2023-04-16T19:23:37.982Z,100258.22
2023-04-16T19:28:40.312Z,100260.66
2023-04-16T19:33:42.425Z,100261.25
2023-04-16T19:38:44.565Z,100257.56
2023-04-16T19:43:46.718Z,100257.41
2023-04-16T19:48:48.883Z,100256.09
2023-04-16T19:53:51.846Z,100253.38
2023-04-16T19:58:55.544Z,100251.59
2023-04-16T20:03:57.809Z,100257.22
2023-04-16T20:09:00.141Z,100248.09
2023-04-16T20:14:02.342Z,100253.63
2023-04-16T20:19:07.150Z,100243.28
2023-04-16T20:24:10.852Z,100245.53
2023-04-16T20:29:13.085Z,100248.00
2023-04-16T20:34:15.390Z,100246.66
2023-04-16T20:39:20.417Z,100247.47
2023-04-16T20:44:40.347Z,100248.38
2023-04-16T20:49:49.432Z,100247.03
2023-04-16T20:54:52.424Z,100248.19
2023-04-16T20:59:54.699Z,100245.81
2023-04-16T21:04:56.953Z,100245.56
2023-04-16T21:10:00.672Z,100237.16
2023-04-16T21:15:04.210Z,100248.56
2023-04-16T21:20:10.635Z,100245.25
2023-04-16T21:25:12.832Z,100240.56
2023-04-16T21:30:15.388Z,100231.97
2023-04-16T21:35:17.647Z,100230.19
2023-04-16T21:40:19.817Z,100226.84
2023-04-16T21:45:21.978Z,100232.06
2023-04-16T21:50:24.236Z,100238.84
2023-04-16T21:55:26.408Z,100226.97
2023-04-16T22:00:28.692Z,100224.66
2023-04-16T22:05:31.820Z,100218.06
2023-04-16T22:10:34.148Z,100223.84
2023-04-16T22:15:36.336Z,100213.16
2023-04-16T22:20:39.346Z,100219.53
2023-04-16T22:25:41.813Z,100207.19
2023-04-16T22:30:44.083Z,100208.47
2023-04-16T22:35:46.430Z,100209.56
2023-04-16T22:40:49.034Z,100202.87
2023-04-16T22:46:01.157Z,100197.44
2023-04-16T22:51:04.452Z,100198.62
2023-04-16T22:56:06.998Z,100204.78
2023-04-16T23:01:09.215Z,100200.38
2023-04-16T23:06:11.972Z,100183.81
2023-04-16T23:11:14.163Z,100189.28
2023-04-16T23:16:16.389Z,100184.66
2023-04-16T23:21:18.761Z,100174.22
2023-04-16T23:26:20.917Z,100177.78
2023-04-16T23:31:23.147Z,100170.69
2023-04-16T23:36:26.421Z,100168.25
2023-04-16T23:41:28.671Z,100175.63
2023-04-16T23:46:31.050Z,100165.16
2023-04-16T23:51:33.311Z,100147.94
2023-04-16T23:56:35.643Z,100156.97
